Time;durP1;ratioP1;P1;durP2;ratioP2;P2;SDS_P1;SDS_P2;PMS_P1;PMS_P2;Temp;Humidity;BMP_temperature;BMP_pressure;BME280_temperature;BME280_humidity;BME280_pressure;Samples;Min_cycle;Max_cycle;Signal;HPM_P1;HPM_P2
2022/11/10 00:04:05;;;;;;;54.22;46.42;;;;;;;;;;10169634;28;20051;-62
2022/11/10 00:09:17;;;;;;;53.58;43.38;;;;;;;;;;10157069;28;20058;-62
2022/11/10 00:19:59;;;;;;;58.58;46.45;;;;;;;;;;10150641;28;20068;-63
2022/11/10 00:25:11;;;;;;;54.60;42.13;;;;;;;;;;10149114;28;20101;-63
2022/11/10 00:30:23;;;;;;;50.40;41.85;;;;;;;;;;10150040;28;20539;-63
2022/11/10 00:35:35;;;;;;;55.70;44.67;;;;;;;;;;10153561;28;20047;-63
2022/11/10 00:40:47;;;;;;;49.70;42.03;;;;;;;;;;10150546;28;20640;-63
2022/11/10 00:45:59;;;;;;;48.95;42.75;;;;;;;;;;10150130;28;20109;-62
2022/11/10 00:51:31;;;;;;;51.20;40.28;;;;;;;;;;10147936;28;20071;-63
2022/11/10 00:56:43;;;;;;;52.47;42.25;;;;;;;;;;10153295;28;20059;-63
2022/11/10 01:01:54;;;;;;;50.25;40.33;;;;;;;;;;10136134;28;20051;-63
2022/11/10 01:07:07;;;;;;;53.20;42.70;;;;;;;;;;10149162;28;20154;-63
2022/11/10 01:12:19;;;;;;;46.92;39.78;;;;;;;;;;10149326;28;20059;-63
2022/11/10 01:17:31;;;;;;;48.85;40.65;;;;;;;;;;10149321;28;20094;-62
2022/11/10 01:22:43;;;;;;;49.63;41.03;;;;;;;;;;10141164;28;20055;-63
2022/11/10 01:27:54;;;;;;;50.00;39.65;;;;;;;;;;10147770;28;20534;-63
2022/11/10 01:33:06;;;;;;;56.92;41.80;;;;;;;;;;10170386;28;20051;-62
2022/11/10 01:38:19;;;;;;;50.97;43.75;;;;;;;;;;10151629;28;20113;-63
2022/11/10 01:43:32;;;;;;;51.08;40.55;;;;;;;;;;10147630;28;20132;-63
2022/11/10 01:48:58;;;;;;;47.95;40.13;;;;;;;;;;10157459;28;20052;-63
2022/11/10 01:54:20;;;;;;;52.05;41.13;;;;;;;;;;10144710;28;20515;-62
2022/11/10 01:59:34;;;;;;;48.70;41.63;;;;;;;;;;10159871;28;20491;-63
2022/11/10 02:04:48;;;;;;;53.63;43.47;;;;;;;;;;10134476;28;20058;-62
2022/11/10 02:10:03;;;;;;;52.45;42.72;;;;;;;;;;10147509;28;20129;-62
2022/11/10 02:15:16;;;;;;;52.28;42.30;;;;;;;;;;10146398;28;20060;-63
2022/11/10 02:20:28;;;;;;;46.28;39.45;;;;;;;;;;10153559;28;20131;-62
2022/11/10 02:25:41;;;;;;;49.38;42.28;;;;;;;;;;10146366;28;20109;-62
2022/11/10 02:30:55;;;;;;;51.97;43.55;;;;;;;;;;10157224;28;20047;-62
2022/11/10 02:36:06;;;;;;;49.53;41.00;;;;;;;;;;10135681;28;20044;-63
2022/11/10 02:41:18;;;;;;;48.28;43.00;;;;;;;;;;10146703;28;20103;-63
2022/11/10 02:46:31;;;;;;;57.17;44.10;;;;;;;;;;10146613;28;20055;-64
2022/11/10 02:51:44;;;;;;;51.63;43.60;;;;;;;;;;10134442;28;20522;-62
2022/11/10 02:56:55;;;;;;;53.17;42.45;;;;;;;;;;10149354;28;20099;-62
2022/11/10 03:02:08;;;;;;;52.78;41.92;;;;;;;;;;10151561;28;20070;-62
2022/11/10 03:07:20;;;;;;;51.85;41.92;;;;;;;;;;10145487;28;20522;-62
2022/11/10 03:12:32;;;;;;;49.38;42.25;;;;;;;;;;10145046;28;20526;-62
2022/11/10 03:17:43;;;;;;;46.92;40.70;;;;;;;;;;10144981;28;20054;-62
2022/11/10 03:23:01;;;;;;;46.65;40.63;;;;;;;;;;10163748;28;20127;-61
2022/11/10 03:28:12;;;;;;;50.67;40.40;;;;;;;;;;10154145;28;20056;-62
2022/11/10 03:33:24;;;;;;;50.90;42.38;;;;;;;;;;10158259;28;20051;-62
2022/11/10 03:38:36;;;;;;;45.25;40.28;;;;;;;;;;10150830;28;20445;-62
2022/11/10 03:43:48;;;;;;;50.90;39.97;;;;;;;;;;10151917;28;20055;-62
2022/11/10 03:49:01;;;;;;;48.47;39.92;;;;;;;;;;10151917;28;20139;-62
2022/11/10 03:54:12;;;;;;;47.75;39.58;;;;;;;;;;10151837;28;20071;-62
2022/11/10 03:59:24;;;;;;;44.28;39.33;;;;;;;;;;10154519;28;20138;-62
2022/11/10 04:10:09;;;;;;;55.10;42.03;;;;;;;;;;10144960;28;20058;-62
2022/11/10 04:20:56;;;;;;;51.83;40.85;;;;;;;;;;10151029;28;20123;-62
2022/11/10 04:26:28;;;;;;;55.20;42.22;;;;;;;;;;10150402;28;20056;-62
2022/11/10 04:31:40;;;;;;;48.92;40.08;;;;;;;;;;10150174;28;20118;-62
2022/11/10 04:36:53;;;;;;;53.88;40.85;;;;;;;;;;10149669;28;20125;-62
2022/11/10 04:42:05;;;;;;;56.20;42.17;;;;;;;;;;10149194;28;20059;-62
2022/11/10 04:47:17;;;;;;;50.53;41.65;;;;;;;;;;10152319;28;20525;-62
2022/11/10 04:52:30;;;;;;;51.45;44.45;;;;;;;;;;10142793;28;20153;-62
2022/11/10 04:57:42;;;;;;;46.35;39.88;;;;;;;;;;10152289;28;20147;-62
2022/11/10 05:02:54;;;;;;;53.63;43.38;;;;;;;;;;10142046;28;20052;-62
2022/11/10 05:08:06;;;;;;;52.00;42.05;;;;;;;;;;10147937;28;20399;-62
2022/11/10 05:13:17;;;;;;;57.67;42.65;;;;;;;;;;10151213;28;20461;-62
2022/11/10 05:18:29;;;;;;;52.78;43.85;;;;;;;;;;10137679;28;20129;-62
2022/11/10 05:23:42;;;;;;;53.17;42.83;;;;;;;;;;10148795;28;20052;-62
2022/11/10 05:28:55;;;;;;;53.40;44.80;;;;;;;;;;10148432;28;20044;-62
2022/11/10 05:34:07;;;;;;;50.33;42.92;;;;;;;;;;10156887;28;20098;-62
2022/11/10 05:39:19;;;;;;;50.85;42.95;;;;;;;;;;10147526;28;20063;-62
2022/11/10 05:44:31;;;;;;;48.95;41.47;;;;;;;;;;10147089;28;20102;-62
2022/11/10 05:49:43;;;;;;;52.63;42.78;;;;;;;;;;10147548;28;20530;-63
2022/11/10 05:54:56;;;;;;;51.35;40.72;;;;;;;;;;10147611;28;20097;-63
2022/11/10 06:00:10;;;;;;;50.17;42.10;;;;;;;;;;10146981;28;20606;-63
2022/11/10 06:05:22;;;;;;;52.10;41.97;;;;;;;;;;10154805;28;20127;-63
2022/11/10 06:10:42;;;;;;;50.65;40.78;;;;;;;;;;10148479;28;20111;-63
2022/11/10 06:15:54;;;;;;;46.53;40.40;;;;;;;;;;10147763;28;20052;-63
2022/11/10 06:21:05;;;;;;;49.92;40.53;;;;;;;;;;10147762;28;20067;-63
2022/11/10 06:26:18;;;;;;;52.00;41.83;;;;;;;;;;10145718;28;20056;-62
2022/11/10 06:31:30;;;;;;;45.00;40.13;;;;;;;;;;10139352;28;20058;-63
2022/11/10 06:36:43;;;;;;;46.17;39.85;;;;;;;;;;10147475;28;20071;-62
2022/11/10 06:41:55;;;;;;;45.83;39.42;;;;;;;;;;10163476;28;20143;-62
2022/11/10 06:47:08;;;;;;;52.38;40.92;;;;;;;;;;10145680;28;20141;-63
2022/11/10 06:52:21;;;;;;;50.90;39.95;;;;;;;;;;10158738;28;20063;-63
2022/11/10 06:57:40;;;;;;;49.78;40.22;;;;;;;;;;10161552;28;20125;-63
2022/11/10 07:03:09;;;;;;;46.70;39.63;;;;;;;;;;10163618;28;20133;-63
2022/11/10 07:08:21;;;;;;;44.75;38.95;;;;;;;;;;10144864;28;20125;-62
2022/11/10 07:13:34;;;;;;;51.67;42.88;;;;;;;;;;10155478;28;20067;-63
2022/11/10 07:18:47;;;;;;;46.92;40.40;;;;;;;;;;10160438;28;20101;-67
2022/11/10 07:23:59;;;;;;;50.22;41.08;;;;;;;;;;10162375;28;20536;-74
2022/11/10 07:29:11;;;;;;;50.47;41.80;;;;;;;;;;10157932;28;20109;-70
2022/11/10 07:34:22;;;;;;;56.88;42.38;;;;;;;;;;10151752;28;20605;-69
2022/11/10 07:39:34;;;;;;;47.90;41.85;;;;;;;;;;10152296;28;20059;-72
2022/11/10 07:44:46;;;;;;;51.53;41.38;;;;;;;;;;10157652;28;20059;-70
2022/11/10 07:49:58;;;;;;;56.88;43.30;;;;;;;;;;10153481;28;20063;-69
2022/11/10 07:55:10;;;;;;;51.17;40.95;;;;;;;;;;10159483;28;20098;-69
2022/11/10 08:00:23;;;;;;;57.45;45.40;;;;;;;;;;10147990;28;20125;-69
2022/11/10 08:05:35;;;;;;;51.25;40.60;;;;;;;;;;10148672;28;20056;-72
2022/11/10 08:10:48;;;;;;;52.17;42.05;;;;;;;;;;10157705;28;20081;-70
2022/11/10 08:16:00;;;;;;;53.97;43.58;;;;;;;;;;10173707;28;20082;-70
2022/11/10 08:21:11;;;;;;;55.83;43.80;;;;;;;;;;10163707;28;20106;-73
2022/11/10 08:26:23;;;;;;;52.22;44.40;;;;;;;;;;10145654;28;20067;-71
2022/11/10 08:31:37;;;;;;;58.05;44.25;;;;;;;;;;10147007;28;20406;-71
2022/11/10 08:36:50;;;;;;;56.35;43.60;;;;;;;;;;10162700;28;20089;-71
2022/11/10 08:42:03;;;;;;;56.40;46.78;;;;;;;;;;10160560;28;20054;-67
2022/11/10 08:47:15;;;;;;;58.55;45.30;;;;;;;;;;10173564;28;20403;-68
2022/11/10 08:52:27;;;;;;;58.78;46.75;;;;;;;;;;10168574;28;20105;-68
2022/11/10 08:57:38;;;;;;;60.50;46.20;;;;;;;;;;10156404;28;20068;-68
2022/11/10 09:02:51;;;;;;;61.72;47.42;;;;;;;;;;10167359;28;20060;-68
2022/11/10 09:08:03;;;;;;;58.80;45.63;;;;;;;;;;10165798;28;20043;-67
2022/11/10 09:13:15;;;;;;;57.67;45.03;;;;;;;;;;10155777;28;20097;-68
2022/11/10 09:18:27;;;;;;;61.60;45.60;;;;;;;;;;10152802;28;20132;-71
2022/11/10 09:23:40;;;;;;;63.08;46.08;;;;;;;;;;10152492;28;20051;-68
2022/11/10 09:28:52;;;;;;;57.25;47.20;;;;;;;;;;10156929;28;20174;-67
2022/11/10 09:34:05;;;;;;;56.08;44.53;;;;;;;;;;10157351;28;20094;-65
2022/11/10 09:39:17;;;;;;;63.83;47.67;;;;;;;;;;10163791;28;20055;-66
2022/11/10 09:44:35;;;;;;;65.25;48.35;;;;;;;;;;10133851;28;20114;-64
2022/11/10 09:50:07;;;;;;;63.30;46.67;;;;;;;;;;10132399;28;20537;-64
2022/11/10 09:55:41;;;;;;;60.15;45.92;;;;;;;;;;10138161;28;20564;-63
2022/11/10 10:01:21;;;;;;;60.40;44.25;;;;;;;;;;10130279;28;20083;-64
2022/11/10 10:06:41;;;;;;;62.77;44.10;;;;;;;;;;10122835;28;20139;-66
2022/11/10 10:12:34;;;;;;;47.73;34.20;;;;;;;;;;10133906;28;20091;-64
2022/11/10 10:17:48;;;;;;;43.72;33.28;;;;;;;;;;10128533;28;20120;-67
2022/11/10 10:23:03;;;;;;;48.22;31.90;;;;;;;;;;10136015;28;20252;-64
2022/11/10 10:28:26;;;;;;;39.83;30.90;;;;;;;;;;10121621;28;20088;-64
2022/11/10 10:33:39;;;;;;;35.17;26.45;;;;;;;;;;10142299;28;20063;-65
2022/11/10 10:38:55;;;;;;;34.22;26.40;;;;;;;;;;10140995;28;20903;-63
2022/11/10 10:44:12;;;;;;;32.50;25.13;;;;;;;;;;10139510;28;20055;-66
2022/11/10 10:49:29;;;;;;;28.48;23.50;;;;;;;;;;10136001;28;20103;-64
2022/11/10 10:54:42;;;;;;;28.80;22.40;;;;;;;;;;10152953;28;20408;-64
2022/11/10 11:00:39;;;;;;;25.35;21.65;;;;;;;;;;10145686;28;20561;-65
2022/11/10 11:06:05;;;;;;;24.73;20.55;;;;;;;;;;10149485;28;20050;-65
2022/11/10 11:11:48;;;;;;;23.10;17.92;;;;;;;;;;10166567;28;20125;-63
2022/11/10 11:17:03;;;;;;;18.42;15.75;;;;;;;;;;10169216;28;20054;-63
2022/11/10 11:22:21;;;;;;;16.75;14.40;;;;;;;;;;10156621;28;20106;-64
2022/11/10 11:27:33;;;;;;;18.35;16.23;;;;;;;;;;10058881;28;20068;-64
2022/11/10 11:33:03;;;;;;;19.92;17.27;;;;;;;;;;10065585;28;20096;-65
2022/11/10 11:38:15;;;;;;;;;;;;;;;;;;10067182;28;20475;-64
2022/11/10 11:43:51;;;;;;;28.23;23.02;;;;;;;;;;10071374;28;19928;-64
2022/11/10 11:49:15;;;;;;;23.58;21.08;;;;;;;;;;10068815;28;20080;-64
2022/11/10 11:54:44;;;;;;;24.00;21.40;;;;;;;;;;10069139;28;20103;-64
2022/11/10 12:00:12;;;;;;;22.10;19.67;;;;;;;;;;10072715;28;20111;-64
2022/11/10 12:05:45;;;;;;;27.75;22.65;;;;;;;;;;10068152;28;20520;-64
2022/11/10 12:11:27;;;;;;;25.33;22.10;;;;;;;;;;10082417;28;20052;-64
2022/11/10 12:16:43;;;;;;;28.08;24.05;;;;;;;;;;10069960;28;20487;-65
2022/11/10 12:22:01;;;;;;;25.52;22.75;;;;;;;;;;10067672;28;20135;-65
2022/11/10 12:27:24;;;;;;;28.45;24.02;;;;;;;;;;10128092;28;20540;-65
2022/11/10 12:32:48;;;;;;;28.77;23.85;;;;;;;;;;10157919;28;20052;-65
2022/11/10 12:38:30;;;;;;;27.77;23.45;;;;;;;;;;10145144;28;20135;-64
2022/11/10 12:43:59;;;;;;;29.27;25.05;;;;;;;;;;10150637;28;20157;-65
2022/11/10 12:49:32;;;;;;;27.07;22.30;;;;;;;;;;10159579;28;20392;-65
2022/11/10 12:54:45;;;;;;;40.40;25.88;;;;;;;;;;10148098;28;20461;-66
2022/11/10 13:00:01;;;;;;;25.63;22.38;;;;;;;;;;10137324;28;20530;-65
2022/11/10 13:05:21;;;;;;;27.67;22.75;;;;;;;;;;10164330;28;20109;-65
2022/11/10 13:10:47;;;;;;;28.35;24.15;;;;;;;;;;10169843;28;20122;-65
2022/11/10 13:16:02;;;;;;;24.58;22.08;;;;;;;;;;10168602;28;20062;-65
2022/11/10 13:21:17;;;;;;;22.55;20.17;;;;;;;;;;10165005;28;20071;-64
2022/11/10 13:27:01;;;;;;;22.13;19.80;;;;;;;;;;10167369;28;20141;-64
2022/11/10 13:32:13;;;;;;;23.23;20.73;;;;;;;;;;10140130;28;20051;-64
2022/11/10 13:37:33;;;;;;;20.67;18.48;;;;;;;;;;10155123;28;20059;-64
2022/11/10 13:42:57;;;;;;;21.73;19.42;;;;;;;;;;10145335;28;20649;-65
2022/11/10 13:48:08;;;;;;;20.60;18.42;;;;;;;;;;10147095;28;20059;-64
2022/11/10 13:53:41;;;;;;;22.40;20.08;;;;;;;;;;10148198;28;20122;-64
2022/11/10 13:58:53;;;;;;;22.27;19.95;;;;;;;;;;10157507;28;20051;-64
2022/11/10 14:04:25;;;;;;;21.02;18.80;;;;;;;;;;10134656;28;20063;-64
2022/11/10 14:09:53;;;;;;;20.85;18.65;;;;;;;;;;10151112;28;20055;-64
2022/11/10 14:15:12;;;;;;;21.67;19.25;;;;;;;;;;10155172;28;20051;-64
2022/11/10 14:20:42;;;;;;;20.77;18.57;;;;;;;;;;10141068;28;20055;-65
2022/11/10 14:25:58;;;;;;;20.92;18.73;;;;;;;;;;10150775;28;20052;-65
2022/11/10 14:31:56;;;;;;;20.10;17.42;;;;;;;;;;10134999;28;20055;-65
2022/11/10 14:37:28;;;;;;;21.02;18.00;;;;;;;;;;10137095;28;20517;-65
2022/11/10 14:42:39;;;;;;;19.67;17.73;;;;;;;;;;10156058;28;20097;-65
2022/11/10 14:47:59;;;;;;;19.15;17.23;;;;;;;;;;10166579;28;20078;-66
2022/11/10 14:53:57;;;;;;;20.58;18.48;;;;;;;;;;10145068;28;20530;-66
2022/11/10 14:59:30;;;;;;;25.83;23.02;;;;;;;;;;10146905;28;20119;-66
2022/11/10 15:04:42;;;;;;;25.65;22.25;;;;;;;;;;10148640;28;20136;-66
2022/11/10 15:10:20;;;;;;;28.83;25.38;;;;;;;;;;10133222;28;20059;-66
2022/11/10 15:15:32;;;;;;;25.60;22.83;;;;;;;;;;10143670;28;20411;-66
2022/11/10 15:21:01;;;;;;;24.48;20.85;;;;;;;;;;10141216;28;20058;-66
2022/11/10 15:26:33;;;;;;;21.58;19.40;;;;;;;;;;10169815;28;20155;-66
2022/11/10 15:31:45;;;;;;;20.90;18.80;;;;;;;;;;10147475;28;20411;-65
2022/11/10 15:37:21;;;;;;;21.65;19.45;;;;;;;;;;10162253;28;20457;-66
2022/11/10 15:42:40;;;;;;;23.50;21.10;;;;;;;;;;10151819;28;20059;-66
2022/11/10 15:47:52;;;;;;;22.05;19.33;;;;;;;;;;10151632;28;20102;-65
2022/11/10 15:53:07;;;;;;;25.80;20.58;;;;;;;;;;10165314;28;20115;-66
2022/11/10 15:58:20;;;;;;;23.60;19.80;;;;;;;;;;10142526;28;20071;-65
2022/11/10 16:03:33;;;;;;;21.75;19.52;;;;;;;;;;10143924;28;20075;-66
2022/11/10 16:08:45;;;;;;;26.73;20.42;;;;;;;;;;10153346;28;20056;-66
2022/11/10 16:13:57;;;;;;;24.65;21.70;;;;;;;;;;10167520;28;20063;-66
2022/11/10 16:19:09;;;;;;;24.40;21.33;;;;;;;;;;10150578;28;20101;-66
2022/11/10 16:24:22;;;;;;;26.13;21.70;;;;;;;;;;10144662;28;20141;-66
2022/11/10 16:29:35;;;;;;;26.80;23.50;;;;;;;;;;10151311;28;20091;-66
2022/11/10 16:34:47;;;;;;;25.75;22.67;;;;;;;;;;10145426;28;20051;-66
2022/11/10 16:39:59;;;;;;;23.63;21.20;;;;;;;;;;10154058;28;20047;-66
2022/11/10 16:45:15;;;;;;;30.35;22.92;;;;;;;;;;10159364;28;20134;-65
2022/11/10 16:50:33;;;;;;;26.17;22.55;;;;;;;;;;10154898;28;20186;-66
2022/11/10 16:55:44;;;;;;;26.02;23.23;;;;;;;;;;10151957;28;20075;-66
2022/11/10 17:00:58;;;;;;;30.00;26.77;;;;;;;;;;10148375;28;20491;-66
2022/11/10 17:06:12;;;;;;;30.83;27.60;;;;;;;;;;10148905;28;20051;-66
2022/11/10 17:11:24;;;;;;;33.97;28.77;;;;;;;;;;10150511;28;20082;-65
2022/11/10 17:16:37;;;;;;;29.50;26.48;;;;;;;;;;10150924;28;20544;-65
2022/11/10 17:21:49;;;;;;;28.30;25.40;;;;;;;;;;10148671;28;20055;-65
2022/11/10 17:27:01;;;;;;;29.25;25.92;;;;;;;;;;10130821;28;20054;-65
2022/11/10 17:32:14;;;;;;;31.60;28.27;;;;;;;;;;10154509;28;20110;-66
2022/11/10 17:37:26;;;;;;;34.45;30.73;;;;;;;;;;10145502;28;20055;-66
2022/11/10 17:42:40;;;;;;;30.73;26.95;;;;;;;;;;10135985;28;20044;-65
2022/11/10 17:47:51;;;;;;;30.33;26.23;;;;;;;;;;10150275;28;20040;-65
2022/11/10 17:53:15;;;;;;;26.30;23.63;;;;;;;;;;10138358;28;20076;-66
2022/11/10 17:58:28;;;;;;;28.38;25.25;;;;;;;;;;10147262;28;20110;-68
2022/11/10 18:03:40;;;;;;;27.52;24.65;;;;;;;;;;10148384;28;20461;-68
2022/11/10 18:08:52;;;;;;;31.10;27.80;;;;;;;;;;10146392;28;20222;-68
2022/11/10 18:14:04;;;;;;;28.48;25.48;;;;;;;;;;10146123;28;20131;-68
2022/11/10 18:19:15;;;;;;;31.70;25.92;;;;;;;;;;10146610;28;20419;-68
2022/11/10 18:24:28;;;;;;;31.67;27.00;;;;;;;;;;10149717;28;20067;-68
2022/11/10 18:29:41;;;;;;;28.40;25.00;;;;;;;;;;10154820;28;20055;-67
2022/11/10 18:34:52;;;;;;;30.38;27.15;;;;;;;;;;10141881;28;20056;-67
2022/11/10 18:40:06;;;;;;;29.77;26.73;;;;;;;;;;10153043;28;20068;-67
2022/11/10 18:45:18;;;;;;;28.27;25.27;;;;;;;;;;10155697;28;20051;-69
2022/11/10 18:50:30;;;;;;;30.42;25.92;;;;;;;;;;10154778;28;20106;-68
2022/11/10 18:55:42;;;;;;;35.47;30.05;;;;;;;;;;10165116;28;20407;-69
2022/11/10 19:01:22;;;;;;;31.85;28.45;;;;;;;;;;10156132;28;20047;-68
2022/11/10 19:06:36;;;;;;;29.85;26.75;;;;;;;;;;10133880;28;20063;-68
2022/11/10 19:11:48;;;;;;;30.58;26.45;;;;;;;;;;10159060;28;20109;-67
2022/11/10 19:17:00;;;;;;;40.70;34.42;;;;;;;;;;10155059;28;20403;-67
2022/11/10 19:22:12;;;;;;;31.23;27.45;;;;;;;;;;10152465;28;20075;-68
2022/11/10 19:27:23;;;;;;;31.50;28.10;;;;;;;;;;10160585;28;20541;-67
2022/11/10 19:32:36;;;;;;;29.42;25.75;;;;;;;;;;10175965;28;20055;-65
2022/11/10 19:37:51;;;;;;;34.33;30.73;;;;;;;;;;10176960;28;20055;-65
2022/11/10 19:43:03;;;;;;;99.25;66.10;;;;;;;;;;10182580;28;20449;-66
2022/11/10 19:48:15;;;;;;;72.72;51.75;;;;;;;;;;10183177;28;20093;-59
2022/11/10 19:53:28;;;;;;;40.45;32.67;;;;;;;;;;10180981;28;20101;-60
2022/11/10 19:58:41;;;;;;;86.72;56.90;;;;;;;;;;10179006;28;20047;-60
2022/11/10 20:03:54;;;;;;;91.03;62.88;;;;;;;;;;10172903;28;20406;-60
2022/11/10 20:09:06;;;;;;;65.35;52.90;;;;;;;;;;10174675;28;20067;-59
2022/11/10 20:14:18;;;;;;;44.85;39.15;;;;;;;;;;10180749;28;20059;-59
2022/11/10 20:19:37;;;;;;;40.45;34.95;;;;;;;;;;10176483;28;20047;-59
2022/11/10 20:24:51;;;;;;;37.28;33.10;;;;;;;;;;10179030;28;20047;-59
2022/11/10 20:30:04;;;;;;;38.45;33.22;;;;;;;;;;10180818;28;20406;-59
2022/11/10 20:35:15;;;;;;;37.97;33.58;;;;;;;;;;10177249;28;20106;-67
2022/11/10 20:40:28;;;;;;;41.90;33.70;;;;;;;;;;10162152;28;20098;-59
2022/11/10 20:45:54;;;;;;;35.03;31.27;;;;;;;;;;10138296;28;20125;-60
2022/11/10 20:51:10;;;;;;;34.67;30.88;;;;;;;;;;10155049;28;20059;-59
2022/11/10 20:56:22;;;;;;;36.97;32.55;;;;;;;;;;10150171;28;20060;-59
2022/11/10 21:01:40;;;;;;;37.88;31.65;;;;;;;;;;10148793;28;20558;-60
2022/11/10 21:06:52;;;;;;;36.83;31.73;;;;;;;;;;10150113;28;20090;-60
2022/11/10 21:17:33;;;;;;;37.07;31.60;;;;;;;;;;10124968;28;20106;-59
2022/11/10 21:22:51;;;;;;;39.50;31.23;;;;;;;;;;10164400;28;21355;-59
2022/11/10 21:28:03;;;;;;;34.85;30.55;;;;;;;;;;10160573;28;20450;-59
2022/11/10 21:33:15;;;;;;;35.40;31.23;;;;;;;;;;10164401;28;20051;-59
2022/11/10 21:38:27;;;;;;;37.45;31.60;;;;;;;;;;10171487;28;20050;-59
2022/11/10 21:43:40;;;;;;;40.88;32.85;;;;;;;;;;10171987;28;20110;-60
2022/11/10 21:56:06;;;;;;;34.05;30.48;;;;;;;;;;10159447;28;20051;-60
2022/11/10 22:01:21;;;;;;;35.13;30.45;;;;;;;;;;10143401;28;20067;-60
2022/11/10 22:23:06;;;;;;;35.40;31.25;;;;;;;;;;10134646;28;20056;-60
2022/11/10 22:28:19;;;;;;;35.65;31.10;;;;;;;;;;10146642;28;20110;-60
2022/11/10 22:34:38;;;;;;;37.78;33.63;;;;;;;;;;10153447;28;20056;-60
2022/11/10 22:45:36;;;;;;;36.25;32.45;;;;;;;;;;10036608;28;20064;-60
2022/11/10 22:50:55;;;;;;;34.33;29.58;;;;;;;;;;10157160;28;20501;-60
2022/11/10 22:56:07;;;;;;;34.35;29.17;;;;;;;;;;10135251;28;20136;-60
2022/11/10 23:01:19;;;;;;;37.20;31.80;;;;;;;;;;10146967;28;20079;-59
2022/11/10 23:06:31;;;;;;;33.33;29.83;;;;;;;;;;10154763;28;20529;-60
2022/11/10 23:11:43;;;;;;;38.75;30.17;;;;;;;;;;10153354;28;20071;-60
2022/11/10 23:16:56;;;;;;;36.72;31.25;;;;;;;;;;10145382;28;20135;-59
2022/11/10 23:22:08;;;;;;;36.03;31.13;;;;;;;;;;10141263;28;20094;-60
2022/11/10 23:27:21;;;;;;;39.05;30.98;;;;;;;;;;10144806;28;20107;-60
2022/11/10 23:32:33;;;;;;;36.47;30.50;;;;;;;;;;10149311;28;20078;-61
2022/11/10 23:37:45;;;;;;;40.55;31.45;;;;;;;;;;10151895;28;20060;-60
2022/11/10 23:42:57;;;;;;;37.13;32.05;;;;;;;;;;10141546;28;20052;-61
2022/11/10 23:48:09;;;;;;;41.22;34.10;;;;;;;;;;10141569;28;20051;-61
2022/11/10 23:53:21;;;;;;;46.72;37.42;;;;;;;;;;10139829;28;20153;-62
2022/11/10 23:58:33;;;;;;;56.30;41.45;;;;;;;;;;10139183;28;20091;-61
